Nesmith, SC (29580)

6:17 PM EST on February 06, 2016 (GMT -0500)
MPP Plantation | | Change Station
CLOSE
Current Station
Personal Weather Station
Location: Andrews, SC
Elevation: 43 ft
Nearby Weather Stations
Active Advisory: Flood Warning

Elev 43 ft 33.50 °N, 79.46 °W | Updated 5 minutes ago

Overcast
Overcast
48.2 °F
Feels Like 48 °F
N
0.0
Wind Variable Wind from WSW
Gusts 2.0 mph

Today
High -- | Low -- °F
--% Chance of Precip.
Yesterday
High -- | Low -- °F
Precip. -- in
Pressure 30.27 in
Visibility 10.0 miles
Clouds Overcast 4800 ft
Windchill 48 °F
Dew Point 42 °F
Humidity 79%
Rainfall 0.00 in
Snow Depth Not available.
7:11 AM 5:53 PM
Waning Crescent, 4% visible
METAR KCKI 062315Z AUTO 36003KT 10SM OVC048 08/M04 A3027 RMK AO2
Pressure 30.27 in
Visibility 10.0 miles
Clouds Overcast 4800 ft
Windchill 48 °F
Dew Point 42 °F
Humidity 79%
Rainfall 0.00 in
Snow Depth Not available.
7:11 AM 5:53 PM
Waning Crescent, 4% visible
METAR KCKI 062315Z AUTO 36003KT 10SM OVC048 08/M04 A3027 RMK AO2

10-Day Weather Forecast

Almanac

Astronomy

Feb. 06, 2016 Rise Set
Actual Time
Civil Twilight
Nautical Twilight
Astronomical Twilight
Moon
Length of Visible Light
Length of Day
Tomorrow will be .
, % of the Moon is Illuminated

Today's Extremes

State Highs State Lows

Community

WunderPhotos

Upload Photos

1,891,092 photos uploaded!

WunderBlog® & News

Nearby

Air Quality

  Air Quality AQ Index Pollutant
Not available.

Snow Depth

Station Depth Elevation

Earthquake Activity

City Distance Mag. Time & Date
Minimum magnitude displayed is 2.5.

Coastal Water Temperatures

Place Temperature

Stations

Nearby Weather Stations

Station Location Temp. Windchill Dew Point Humidity Wind Precip. Elev Updated Type
                   

Watches & Warnings

Flood Warning
Issued: 11:00 AM EST Feb. 6, 2016 – National Weather Service

The Flood Warning continues for
the black at Kingstree.
* Until further notice.
* At 10:00 am Saturday the stage was 12.38 feet.
* Flood stage is 12.0 feet.
* Minor flooding is occurring and minor flooding is forecast.
* Forecast... the river will continue rising to near 13.1 feet by Monday morning
then begin falling.
* Impact... at 14.0 feet... flood waters will continue to affect immediate areas
along the river bed. Rising water levels will also reach Highway 41 at Andrews
at 14.5 feet.


Lat... Lon 3373 7984 3367 7980 3362 7974 3354 7979
          3359 7987 3367 7994


04


1023 am EST Sat Feb 6 2016

The Flood Warning continues for
the Santee river near Jamestown.
* At 9 am Saturday the stage was 12.7 feet.
* Flood stage is 10.0 feet.
* Minor flooding is occurring.
* Forecast, the river will continue rising to near 14.2 feet by
Monday evening. Additional rises may be possible thereafter.
* At 12.0 feet, several dirt logging roads are impassable.


Lat... Lon 3347 8002 3354 7998 3325 7937 3321 7938
          3320 7951 3329 7976